sensor_id;sensor_type;location;lat;lon;timestamp;pressure;altitude;pressure_sealevel;temperature;humidity
43683;BME280;29285;52.128;21.060;2023-04-27T00:01:54;100365.45;;;5.79;83.78
43683;BME280;29285;52.128;21.060;2023-04-27T00:06:55;100368.83;;;5.66;83.77
43683;BME280;29285;52.128;21.060;2023-04-27T00:11:56;100365.05;;;5.63;84.00
43683;BME280;29285;52.128;21.060;2023-04-27T00:16:57;100366.73;;;5.61;84.45
43683;BME280;29285;52.128;21.060;2023-04-27T00:21:58;100361.38;;;5.56;84.63
43683;BME280;29285;52.128;21.060;2023-04-27T00:27:00;100361.70;;;5.51;84.98
43683;BME280;29285;52.128;21.060;2023-04-27T00:32:01;100370.98;;;5.48;85.23
43683;BME280;29285;52.128;21.060;2023-04-27T00:37:05;100374.04;;;5.41;85.38
43683;BME280;29285;52.128;21.060;2023-04-27T00:42:06;100376.75;;;5.34;85.67
43683;BME280;29285;52.128;21.060;2023-04-27T00:47:11;100381.38;;;5.29;85.98
43683;BME280;29285;52.128;21.060;2023-04-27T00:52:12;100381.34;;;5.24;86.20
43683;BME280;29285;52.128;21.060;2023-04-27T00:57:14;100386.65;;;5.21;86.73
43683;BME280;29285;52.128;21.060;2023-04-27T01:02:16;100386.41;;;5.14;86.88
43683;BME280;29285;52.128;21.060;2023-04-27T01:07:17;100389.66;;;5.10;86.81
43683;BME280;29285;52.128;21.060;2023-04-27T01:12:18;100395.39;;;4.94;86.98
43683;BME280;29285;52.128;21.060;2023-04-27T01:17:22;100397.75;;;4.87;87.20
43683;BME280;29285;52.128;21.060;2023-04-27T01:22:24;100398.06;;;4.84;87.20
43683;BME280;29285;52.128;21.060;2023-04-27T01:27:26;100397.18;;;4.84;87.69
43683;BME280;29285;52.128;21.060;2023-04-27T01:32:27;100401.88;;;4.87;88.32
43683;BME280;29285;52.128;21.060;2023-04-27T01:37:28;100399.59;;;4.83;88.27
43683;BME280;29285;52.128;21.060;2023-04-27T01:42:33;100402.14;;;4.80;88.47
43683;BME280;29285;52.128;21.060;2023-04-27T01:47:34;100399.45;;;4.66;88.31
43683;BME280;29285;52.128;21.060;2023-04-27T01:52:35;100407.86;;;4.65;88.77
43683;BME280;29285;52.128;21.060;2023-04-27T01:57:37;100411.82;;;4.66;88.92
43683;BME280;29285;52.128;21.060;2023-04-27T02:02:44;100411.14;;;4.66;89.47
43683;BME280;29285;52.128;21.060;2023-04-27T02:07:58;100412.16;;;4.66;89.75
43683;BME280;29285;52.128;21.060;2023-04-27T02:13:24;100413.00;;;4.63;89.69
43683;BME280;29285;52.128;21.060;2023-04-27T02:18:28;100416.77;;;4.62;90.35
43683;BME280;29285;52.128;21.060;2023-04-27T02:23:30;100416.58;;;4.59;90.25
43683;BME280;29285;52.128;21.060;2023-04-27T02:28:34;100415.67;;;4.56;90.42
43683;BME280;29285;52.128;21.060;2023-04-27T02:33:39;100417.80;;;4.47;90.52
43683;BME280;29285;52.128;21.060;2023-04-27T02:38:47;100414.52;;;4.43;90.58
43683;BME280;29285;52.128;21.060;2023-04-27T02:43:58;100416.92;;;4.43;90.91
43683;BME280;29285;52.128;21.060;2023-04-27T02:49:28;100419.50;;;4.43;91.14
43683;BME280;29285;52.128;21.060;2023-04-27T02:54:28;100418.59;;;4.38;91.02
43683;BME280;29285;52.128;21.060;2023-04-27T02:59:31;100414.93;;;4.33;91.33
43683;BME280;29285;52.128;21.060;2023-04-27T03:04:33;100422.95;;;4.29;91.65
43683;BME280;29285;52.128;21.060;2023-04-27T03:09:36;100426.63;;;4.20;91.50
43683;BME280;29285;52.128;21.060;2023-04-27T03:14:37;100436.49;;;4.11;91.42
43683;BME280;29285;52.128;21.060;2023-04-27T03:19:58;100439.56;;;4.09;91.65
43683;BME280;29285;52.128;21.060;2023-04-27T03:25:10;100440.81;;;4.13;92.05
43683;BME280;29285;52.128;21.060;2023-04-27T03:30:12;100439.31;;;4.18;92.28
43683;BME280;29285;52.128;21.060;2023-04-27T03:35:16;100440.58;;;4.23;92.86
43683;BME280;29285;52.128;21.060;2023-04-27T03:40:17;100444.62;;;4.31;93.13
43683;BME280;29285;52.128;21.060;2023-04-27T03:45:19;100441.52;;;4.30;93.26
43683;BME280;29285;52.128;21.060;2023-04-27T03:50:22;100441.02;;;4.32;93.30
43683;BME280;29285;52.128;21.060;2023-04-27T03:55:23;100447.44;;;4.37;93.51
43683;BME280;29285;52.128;21.060;2023-04-27T04:00:27;100446.20;;;4.50;94.04
43683;BME280;29285;52.128;21.060;2023-04-27T04:05:29;100456.79;;;4.60;94.58
43683;BME280;29285;52.128;21.060;2023-04-27T04:10:30;100458.98;;;4.73;94.93
43683;BME280;29285;52.128;21.060;2023-04-27T04:15:32;100462.17;;;4.83;95.24
43683;BME280;29285;52.128;21.060;2023-04-27T04:20:36;100464.48;;;4.92;95.38
43683;BME280;29285;52.128;21.060;2023-04-27T04:25:37;100481.22;;;4.96;95.50
43683;BME280;29285;52.128;21.060;2023-04-27T04:30:39;100485.46;;;4.90;95.32
43683;BME280;29285;52.128;21.060;2023-04-27T04:35:41;100484.56;;;4.87;95.10
43683;BME280;29285;52.128;21.060;2023-04-27T04:40:42;100486.30;;;4.88;95.31
43683;BME280;29285;52.128;21.060;2023-04-27T04:45:43;100492.58;;;4.98;95.56
43683;BME280;29285;52.128;21.060;2023-04-27T04:50:45;100492.18;;;5.10;95.59
43683;BME280;29285;52.128;21.060;2023-04-27T04:55:52;100488.18;;;5.28;95.99
43683;BME280;29285;52.128;21.060;2023-04-27T05:00:59;100491.46;;;5.50;96.34
43683;BME280;29285;52.128;21.060;2023-04-27T05:06:00;100496.58;;;5.69;96.83
43683;BME280;29285;52.128;21.060;2023-04-27T05:11:02;100498.02;;;5.79;96.86
43683;BME280;29285;52.128;21.060;2023-04-27T05:16:15;100501.15;;;5.84;96.73
43683;BME280;29285;52.128;21.060;2023-04-27T05:21:18;100505.85;;;5.92;96.93
43683;BME280;29285;52.128;21.060;2023-04-27T05:26:33;100499.73;;;6.05;97.09
43683;BME280;29285;52.128;21.060;2023-04-27T05:31:40;100504.61;;;6.12;97.11
43683;BME280;29285;52.128;21.060;2023-04-27T05:36:44;100508.48;;;6.26;97.42
43683;BME280;29285;52.128;21.060;2023-04-27T05:41:55;100506.39;;;6.25;97.27
43683;BME280;29285;52.128;21.060;2023-04-27T05:46:57;100502.48;;;6.38;97.42
43683;BME280;29285;52.128;21.060;2023-04-27T05:51:58;100507.89;;;6.51;97.45
43683;BME280;29285;52.128;21.060;2023-04-27T05:57:00;100509.47;;;6.68;97.68
43683;BME280;29285;52.128;21.060;2023-04-27T06:02:01;100506.08;;;6.83;97.96
43683;BME280;29285;52.128;21.060;2023-04-27T06:07:12;100513.02;;;7.14;98.44
43683;BME280;29285;52.128;21.060;2023-04-27T06:12:14;100516.83;;;7.42;99.20
43683;BME280;29285;52.128;21.060;2023-04-27T06:17:15;100519.75;;;7.70;99.60
43683;BME280;29285;52.128;21.060;2023-04-27T06:22:16;100518.48;;;7.96;99.85
43683;BME280;29285;52.128;21.060;2023-04-27T06:27:17;100518.42;;;8.21;99.99
43683;BME280;29285;52.128;21.060;2023-04-27T06:32:21;100523.91;;;8.33;99.79
43683;BME280;29285;52.128;21.060;2023-04-27T06:37:22;100527.30;;;8.49;99.67
43683;BME280;29285;52.128;21.060;2023-04-27T06:42:23;100526.23;;;8.64;99.53
43683;BME280;29285;52.128;21.060;2023-04-27T06:47:28;100525.52;;;8.72;99.24
43683;BME280;29285;52.128;21.060;2023-04-27T06:52:34;100526.50;;;8.79;98.93
43683;BME280;29285;52.128;21.060;2023-04-27T06:57:35;100524.70;;;8.90;98.73
43683;BME280;29285;52.128;21.060;2023-04-27T07:02:37;100528.91;;;9.09;98.91
43683;BME280;29285;52.128;21.060;2023-04-27T07:07:38;100530.55;;;9.45;99.36
43683;BME280;29285;52.128;21.060;2023-04-27T07:12:42;100528.14;;;9.83;99.87
43683;BME280;29285;52.128;21.060;2023-04-27T07:17:46;100536.63;;;10.00;99.80
43683;BME280;29285;52.128;21.060;2023-04-27T07:22:47;100541.27;;;10.03;99.06
43683;BME280;29285;52.128;21.060;2023-04-27T07:27:49;100549.80;;;10.00;98.35
43683;BME280;29285;52.128;21.060;2023-04-27T07:32:50;100546.06;;;9.93;97.28
43683;BME280;29285;52.128;21.060;2023-04-27T07:37:54;100543.74;;;9.98;96.98
43683;BME280;29285;52.128;21.060;2023-04-27T07:42:56;100542.19;;;9.99;96.65
43683;BME280;29285;52.128;21.060;2023-04-27T07:48:01;100540.19;;;10.07;96.20
43683;BME280;29285;52.128;21.060;2023-04-27T07:53:02;100548.73;;;10.19;96.18
43683;BME280;29285;52.128;21.060;2023-04-27T07:58:04;100548.73;;;10.18;95.49
43683;BME280;29285;52.128;21.060;2023-04-27T08:03:05;100552.07;;;10.31;95.35
43683;BME280;29285;52.128;21.060;2023-04-27T08:08:07;100551.61;;;10.73;96.29
43683;BME280;29285;52.128;21.060;2023-04-27T08:13:11;100549.98;;;10.77;95.93
43683;BME280;29285;52.128;21.060;2023-04-27T08:18:13;100552.46;;;10.73;95.03
43683;BME280;29285;52.128;21.060;2023-04-27T08:23:14;100546.19;;;10.74;94.43
43683;BME280;29285;52.128;21.060;2023-04-27T08:28:15;100552.55;;;11.04;94.53
43683;BME280;29285;52.128;21.060;2023-04-27T08:33:16;100560.34;;;11.18;94.45
43683;BME280;29285;52.128;21.060;2023-04-27T08:38:17;100557.85;;;11.22;93.55
43683;BME280;29285;52.128;21.060;2023-04-27T08:43:22;100558.16;;;11.24;92.59
43683;BME280;29285;52.128;21.060;2023-04-27T08:48:23;100550.67;;;11.25;91.89
43683;BME280;29285;52.128;21.060;2023-04-27T08:53:24;100554.88;;;11.35;91.45
43683;BME280;29285;52.128;21.060;2023-04-27T08:58:35;100559.61;;;11.43;91.55
43683;BME280;29285;52.128;21.060;2023-04-27T09:03:37;100559.88;;;11.26;90.32
43683;BME280;29285;52.128;21.060;2023-04-27T09:13:45;100553.16;;;11.65;89.73
43683;BME280;29285;52.128;21.060;2023-04-27T09:18:46;100550.11;;;11.91;90.12
43683;BME280;29285;52.128;21.060;2023-04-27T09:23:48;100550.50;;;11.89;89.43
43683;BME280;29285;52.128;21.060;2023-04-27T09:28:51;100545.22;;;11.82;87.85
43683;BME280;29285;52.128;21.060;2023-04-27T09:33:55;100546.98;;;11.90;86.45
43683;BME280;29285;52.128;21.060;2023-04-27T09:38:57;100541.36;;;12.04;86.04
43683;BME280;29285;52.128;21.060;2023-04-27T09:43:58;100535.55;;;11.79;84.75
43683;BME280;29285;52.128;21.060;2023-04-27T09:49:03;100534.19;;;11.77;84.06
43683;BME280;29285;52.128;21.060;2023-04-27T09:54:06;100534.86;;;11.79;83.58
43683;BME280;29285;52.128;21.060;2023-04-27T10:09:41;100543.30;;;11.41;81.55
43683;BME280;29285;52.128;21.060;2023-04-27T10:14:50;100554.98;;;11.16;80.77
43683;BME280;29285;52.128;21.060;2023-04-27T10:19:56;100557.47;;;11.00;80.58
43683;BME280;29285;52.128;21.060;2023-04-27T10:24:58;100562.55;;;10.71;79.79
43683;BME280;29285;52.128;21.060;2023-04-27T10:30:08;100578.87;;;10.40;79.15
43683;BME280;29285;52.128;21.060;2023-04-27T10:35:10;100578.25;;;10.15;78.43
43683;BME280;29285;52.128;21.060;2023-04-27T10:40:12;100580.73;;;9.94;77.83
43683;BME280;29285;52.128;21.060;2023-04-27T10:45:25;100567.72;;;9.75;77.31
43683;BME280;29285;52.128;21.060;2023-04-27T10:50:27;100561.90;;;9.65;77.01
43683;BME280;29285;52.128;21.060;2023-04-27T10:55:29;100562.95;;;9.64;77.06
43683;BME280;29285;52.128;21.060;2023-04-27T11:05:33;100570.30;;;9.75;77.48
43683;BME280;29285;52.128;21.060;2023-04-27T11:10:49;100575.22;;;9.88;77.59
43683;BME280;29285;52.128;21.060;2023-04-27T11:15:58;100573.48;;;10.05;77.82
43683;BME280;29285;52.128;21.060;2023-04-27T11:21:08;100576.45;;;10.39;78.31
43683;BME280;29285;52.128;21.060;2023-04-27T11:26:14;100573.82;;;10.71;79.03
43683;BME280;29285;52.128;21.060;2023-04-27T11:31:19;100574.09;;;11.02;79.46
43683;BME280;29285;52.128;21.060;2023-04-27T11:36:21;100571.23;;;11.32;80.01
43683;BME280;29285;52.128;21.060;2023-04-27T11:41:32;100571.16;;;11.37;79.71
43683;BME280;29285;52.128;21.060;2023-04-27T11:46:37;100567.40;;;11.34;79.20
43683;BME280;29285;52.128;21.060;2023-04-27T11:51:38;100568.54;;;11.51;79.23
43683;BME280;29285;52.128;21.060;2023-04-27T11:56:41;100570.38;;;11.75;79.65
43683;BME280;29285;52.128;21.060;2023-04-27T12:01:42;100563.49;;;12.22;80.66
43683;BME280;29285;52.128;21.060;2023-04-27T12:06:43;100567.59;;;12.43;80.72
43683;BME280;29285;52.128;21.060;2023-04-27T12:11:44;100567.13;;;12.49;80.20
43683;BME280;29285;52.128;21.060;2023-04-27T12:16:46;100566.73;;;12.51;79.75
43683;BME280;29285;52.128;21.060;2023-04-27T12:21:47;100564.16;;;12.50;79.68
43683;BME280;29285;52.128;21.060;2023-04-27T12:26:48;100566.74;;;12.34;78.85
43683;BME280;29285;52.128;21.060;2023-04-27T12:31:52;100566.23;;;12.15;77.92
43683;BME280;29285;52.128;21.060;2023-04-27T12:36:57;100565.02;;;12.03;77.07
43683;BME280;29285;52.128;21.060;2023-04-27T12:41:58;100563.93;;;12.07;76.89
43683;BME280;29285;52.128;21.060;2023-04-27T12:46:59;100564.15;;;12.23;76.88
43683;BME280;29285;52.128;21.060;2023-04-27T12:52:04;100569.66;;;12.53;77.27
43683;BME280;29285;52.128;21.060;2023-04-27T12:57:05;100568.66;;;12.76;77.54
43683;BME280;29285;52.128;21.060;2023-04-27T13:02:06;100564.65;;;12.69;76.64
43683;BME280;29285;52.128;21.060;2023-04-27T13:07:09;100571.98;;;12.50;75.75
43683;BME280;29285;52.128;21.060;2023-04-27T13:12:10;100579.23;;;12.07;73.90
43683;BME280;29285;52.128;21.060;2023-04-27T13:17:11;100584.96;;;11.97;73.42
43683;BME280;29285;52.128;21.060;2023-04-27T13:22:13;100587.09;;;11.84;73.26
43683;BME280;29285;52.128;21.060;2023-04-27T13:27:14;100589.98;;;11.88;73.42
43683;BME280;29285;52.128;21.060;2023-04-27T13:32:17;100595.73;;;11.66;72.46
43683;BME280;29285;52.128;21.060;2023-04-27T13:37:18;100589.52;;;11.52;71.72
43683;BME280;29285;52.128;21.060;2023-04-27T13:42:19;100593.43;;;11.47;71.45
43683;BME280;29285;52.128;21.060;2023-04-27T13:47:21;100589.39;;;11.50;71.15
43683;BME280;29285;52.128;21.060;2023-04-27T13:52:23;100600.25;;;11.77;71.60
43683;BME280;29285;52.128;21.060;2023-04-27T13:57:23;100606.61;;;11.70;71.42
43683;BME280;29285;52.128;21.060;2023-04-27T14:02:25;100604.77;;;11.55;70.66
43683;BME280;29285;52.128;21.060;2023-04-27T14:07:27;100606.30;;;11.34;69.79
43683;BME280;29285;52.128;21.060;2023-04-27T14:12:29;100606.92;;;11.27;69.22
43683;BME280;29285;52.128;21.060;2023-04-27T14:17:31;100614.15;;;11.20;68.93
43683;BME280;29285;52.128;21.060;2023-04-27T14:22:33;100609.04;;;11.12;68.53
43683;BME280;29285;52.128;21.060;2023-04-27T14:27:35;100608.20;;;11.10;68.15
43683;BME280;29285;52.128;21.060;2023-04-27T14:32:36;100605.43;;;11.22;68.22
43683;BME280;29285;52.128;21.060;2023-04-27T14:37:37;100606.20;;;11.40;68.64
43683;BME280;29285;52.128;21.060;2023-04-27T14:42:41;100610.63;;;11.46;68.21
43683;BME280;29285;52.128;21.060;2023-04-27T14:47:42;100616.71;;;11.46;68.28
43683;BME280;29285;52.128;21.060;2023-04-27T14:52:43;100620.14;;;11.37;67.84
43683;BME280;29285;52.128;21.060;2023-04-27T14:57:44;100623.86;;;11.33;67.50
43683;BME280;29285;52.128;21.060;2023-04-27T15:02:45;100625.64;;;11.43;67.50
43683;BME280;29285;52.128;21.060;2023-04-27T15:07:46;100630.33;;;11.54;67.55
43683;BME280;29285;52.128;21.060;2023-04-27T15:12:47;100624.67;;;11.60;67.05
43683;BME280;29285;52.128;21.060;2023-04-27T15:17:49;100634.32;;;11.77;67.03
43683;BME280;29285;52.128;21.060;2023-04-27T15:22:50;100634.24;;;11.80;66.61
43683;BME280;29285;52.128;21.060;2023-04-27T15:27:51;100631.66;;;11.68;66.36
43683;BME280;29285;52.128;21.060;2023-04-27T15:32:53;100637.05;;;11.46;65.69
43683;BME280;29285;52.128;21.060;2023-04-27T15:37:54;100643.09;;;11.24;64.91
43683;BME280;29285;52.128;21.060;2023-04-27T15:42:55;100646.61;;;11.21;65.10
43683;BME280;29285;52.128;21.060;2023-04-27T15:47:57;100642.20;;;11.13;65.05
43683;BME280;29285;52.128;21.060;2023-04-27T15:52:58;100642.20;;;10.99;64.86
43683;BME280;29285;52.128;21.060;2023-04-27T15:57:59;100642.25;;;10.94;64.67
43683;BME280;29285;52.128;21.060;2023-04-27T16:03:00;100649.15;;;10.98;64.69
43683;BME280;29285;52.128;21.060;2023-04-27T16:08:01;100649.80;;;10.87;64.66
43683;BME280;29285;52.128;21.060;2023-04-27T16:13:02;100651.32;;;10.77;64.30
43683;BME280;29285;52.128;21.060;2023-04-27T16:18:03;100652.07;;;10.72;64.33
43683;BME280;29285;52.128;21.060;2023-04-27T16:23:08;100653.95;;;10.74;64.30
43683;BME280;29285;52.128;21.060;2023-04-27T16:28:09;100654.99;;;10.75;64.47
43683;BME280;29285;52.128;21.060;2023-04-27T16:33:10;100658.33;;;10.73;64.44
43683;BME280;29285;52.128;21.060;2023-04-27T16:38:12;100660.20;;;10.76;64.54
43683;BME280;29285;52.128;21.060;2023-04-27T16:43:13;100659.55;;;10.71;64.47
43683;BME280;29285;52.128;21.060;2023-04-27T16:48:14;100663.23;;;10.68;64.29
43683;BME280;29285;52.128;21.060;2023-04-27T16:53:16;100663.81;;;10.77;64.48
43683;BME280;29285;52.128;21.060;2023-04-27T16:58:20;100668.63;;;10.81;64.76
43683;BME280;29285;52.128;21.060;2023-04-27T17:03:21;100671.89;;;10.68;64.27
43683;BME280;29285;52.128;21.060;2023-04-27T17:08:22;100672.81;;;10.63;64.21
43683;BME280;29285;52.128;21.060;2023-04-27T17:13:23;100676.59;;;10.67;64.38
43683;BME280;29285;52.128;21.060;2023-04-27T17:18:24;100678.04;;;10.62;64.15
43683;BME280;29285;52.128;21.060;2023-04-27T17:23:26;100681.59;;;10.54;64.10
43683;BME280;29285;52.128;21.060;2023-04-27T17:28:27;100683.23;;;10.46;63.85
43683;BME280;29285;52.128;21.060;2023-04-27T17:33:29;100684.98;;;10.44;64.00
43683;BME280;29285;52.128;21.060;2023-04-27T17:38:30;100686.54;;;10.45;64.06
43683;BME280;29285;52.128;21.060;2023-04-27T17:43:31;100684.70;;;10.55;64.52
43683;BME280;29285;52.128;21.060;2023-04-27T17:48:32;100688.77;;;10.46;64.56
43683;BME280;29285;52.128;21.060;2023-04-27T17:53:34;100691.86;;;10.29;64.19
43683;BME280;29285;52.128;21.060;2023-04-27T17:58:35;100690.48;;;10.07;63.93
43683;BME280;29285;52.128;21.060;2023-04-27T18:03:36;100701.52;;;9.67;63.32
43683;BME280;29285;52.128;21.060;2023-04-27T18:08:37;100708.45;;;9.38;62.99
43683;BME280;29285;52.128;21.060;2023-04-27T18:13:38;100714.41;;;9.21;63.07
43683;BME280;29285;52.128;21.060;2023-04-27T18:18:40;100718.76;;;9.17;63.57
43683;BME280;29285;52.128;21.060;2023-04-27T18:23:41;100728.80;;;9.16;63.97
43683;BME280;29285;52.128;21.060;2023-04-27T18:28:44;100734.00;;;9.12;64.55
43683;BME280;29285;52.128;21.060;2023-04-27T18:33:45;100736.62;;;9.07;64.81
43683;BME280;29285;52.128;21.060;2023-04-27T18:38:47;100742.52;;;9.03;65.16
43683;BME280;29285;52.128;21.060;2023-04-27T18:43:48;100741.69;;;8.91;65.49
43683;BME280;29285;52.128;21.060;2023-04-27T18:48:49;100740.67;;;8.80;65.72
43683;BME280;29285;52.128;21.060;2023-04-27T18:53:51;100741.55;;;8.72;66.02
43683;BME280;29285;52.128;21.060;2023-04-27T18:58:53;100744.50;;;8.66;66.44
43683;BME280;29285;52.128;21.060;2023-04-27T19:03:54;100744.33;;;8.51;66.61
43683;BME280;29285;52.128;21.060;2023-04-27T19:08:55;100739.50;;;8.30;66.52
43683;BME280;29285;52.128;21.060;2023-04-27T19:13:57;100740.70;;;8.21;66.87
43683;BME280;29285;52.128;21.060;2023-04-27T19:18:59;100742.60;;;8.15;67.22
43683;BME280;29285;52.128;21.060;2023-04-27T19:24:00;100741.56;;;8.08;67.48
43683;BME280;29285;52.128;21.060;2023-04-27T19:29:01;100745.86;;;7.97;67.55
43683;BME280;29285;52.128;21.060;2023-04-27T19:34:08;100745.16;;;7.89;67.80
43683;BME280;29285;52.128;21.060;2023-04-27T19:39:09;100745.67;;;7.81;68.00
43683;BME280;29285;52.128;21.060;2023-04-27T19:44:11;100745.98;;;7.73;68.09
43683;BME280;29285;52.128;21.060;2023-04-27T19:49:13;100746.15;;;7.70;68.44
43683;BME280;29285;52.128;21.060;2023-04-27T19:54:15;100750.15;;;7.75;68.88
43683;BME280;29285;52.128;21.060;2023-04-27T19:59:16;100755.69;;;7.78;69.38
43683;BME280;29285;52.128;21.060;2023-04-27T20:04:18;100757.40;;;7.72;69.57
43683;BME280;29285;52.128;21.060;2023-04-27T20:09:20;100755.64;;;7.65;69.70
43683;BME280;29285;52.128;21.060;2023-04-27T20:14:21;100754.96;;;7.66;70.07
43683;BME280;29285;52.128;21.060;2023-04-27T20:19:23;100758.76;;;7.65;70.46
43683;BME280;29285;52.128;21.060;2023-04-27T20:24:24;100761.17;;;7.65;70.79
43683;BME280;29285;52.128;21.060;2023-04-27T20:29:26;100766.34;;;7.60;70.94
43683;BME280;29285;52.128;21.060;2023-04-27T20:34:27;100768.41;;;7.56;71.22
43683;BME280;29285;52.128;21.060;2023-04-27T20:39:29;100774.92;;;7.48;71.42
43683;BME280;29285;52.128;21.060;2023-04-27T20:44:30;100778.70;;;7.43;71.70
43683;BME280;29285;52.128;21.060;2023-04-27T20:49:32;100778.35;;;7.40;71.87
43683;BME280;29285;52.128;21.060;2023-04-27T20:54:33;100779.34;;;7.33;71.96
43683;BME280;29285;52.128;21.060;2023-04-27T20:59:34;100778.13;;;7.28;72.34
43683;BME280;29285;52.128;21.060;2023-04-27T21:04:35;100782.45;;;7.32;72.54
43683;BME280;29285;52.128;21.060;2023-04-27T21:09:36;100782.29;;;7.35;72.92
43683;BME280;29285;52.128;21.060;2023-04-27T21:14:38;100783.87;;;7.38;73.19
43683;BME280;29285;52.128;21.060;2023-04-27T21:19:40;100787.14;;;7.38;73.52
43683;BME280;29285;52.128;21.060;2023-04-27T21:24:41;100785.77;;;7.35;73.69
43683;BME280;29285;52.128;21.060;2023-04-27T21:29:42;100787.45;;;7.32;73.89
43683;BME280;29285;52.128;21.060;2023-04-27T21:34:43;100787.63;;;7.29;74.26
43683;BME280;29285;52.128;21.060;2023-04-27T21:39:45;100794.31;;;7.21;74.42
43683;BME280;29285;52.128;21.060;2023-04-27T21:44:46;100789.44;;;7.13;74.45
43683;BME280;29285;52.128;21.060;2023-04-27T21:49:47;100789.94;;;7.10;74.80
43683;BME280;29285;52.128;21.060;2023-04-27T21:54:48;100797.35;;;7.07;75.06
43683;BME280;29285;52.128;21.060;2023-04-27T21:59:52;100801.11;;;7.03;75.61
43683;BME280;29285;52.128;21.060;2023-04-27T22:04:53;100806.45;;;6.99;75.54
43683;BME280;29285;52.128;21.060;2023-04-27T22:09:56;100813.66;;;6.95;75.83
43683;BME280;29285;52.128;21.060;2023-04-27T22:14:57;100812.40;;;6.89;76.18
43683;BME280;29285;52.128;21.060;2023-04-27T22:19:58;100816.17;;;6.85;76.29
43683;BME280;29285;52.128;21.060;2023-04-27T22:24:59;100814.43;;;6.82;76.50
43683;BME280;29285;52.128;21.060;2023-04-27T22:30:01;100810.94;;;6.75;76.78
43683;BME280;29285;52.128;21.060;2023-04-27T22:35:03;100812.80;;;6.68;77.07
43683;BME280;29285;52.128;21.060;2023-04-27T22:40:05;100813.43;;;6.63;77.33
43683;BME280;29285;52.128;21.060;2023-04-27T22:45:08;100812.66;;;6.54;77.18
43683;BME280;29285;52.128;21.060;2023-04-27T22:50:10;100811.96;;;6.52;77.58
43683;BME280;29285;52.128;21.060;2023-04-27T22:55:12;100816.41;;;6.47;77.84
43683;BME280;29285;52.128;21.060;2023-04-27T23:00:13;100816.70;;;6.41;78.17
43683;BME280;29285;52.128;21.060;2023-04-27T23:05:15;100819.23;;;6.36;78.38
43683;BME280;29285;52.128;21.060;2023-04-27T23:10:16;100820.23;;;6.30;78.25
43683;BME280;29285;52.128;21.060;2023-04-27T23:15:19;100824.33;;;6.27;78.89
43683;BME280;29285;52.128;21.060;2023-04-27T23:20:24;100823.80;;;6.26;79.06
43683;BME280;29285;52.128;21.060;2023-04-27T23:25:25;100827.23;;;6.26;79.40
43683;BME280;29285;52.128;21.060;2023-04-27T23:30:27;100826.38;;;6.25;79.64
43683;BME280;29285;52.128;21.060;2023-04-27T23:35:29;100826.20;;;6.23;79.93
43683;BME280;29285;52.128;21.060;2023-04-27T23:40:31;100824.26;;;6.18;80.20
43683;BME280;29285;52.128;21.060;2023-04-27T23:45:32;100823.69;;;6.15;80.36
43683;BME280;29285;52.128;21.060;2023-04-27T23:50:33;100828.89;;;6.17;80.62
43683;BME280;29285;52.128;21.060;2023-04-27T23:55:37;100825.98;;;6.19;81.08
